Medburyville, Vermont
Current Conditions -  °F | °C
As of 6:10 PM on Tuesday 27 Jan 2015 (Local Time) from KDDH Reporting Station
Light Snow Light Snow  
Wind Chill: -22°   Ceiling: 2200
Heat Index: -13°   Visibility: 1.7mi
Dew Point: -17°   Wind: 14mph
Humidity: 73%   Direction: 340°NNW
Pressure: 29.75"   Gusts: 25mph
Location:  42.883°N, 72.8981°W
Report Text: KDDH 272310Z AUTO 34012G22KT 1 3/4SM -SN OVC022 M13/M17 A2975 RMK AO2 P0000 T11331172
Loading
Personal Weather Stations






























Interactive Weather Map New forecast layout! Learn more

10-Day Weather Forecast

Advertisements
Track Severe Weather on mobile